createdAt,value
2023-03-27T00:02:26.242Z,1.40
2023-03-27T00:04:55.750Z,1.40
2023-03-27T00:07:23.419Z,1.33
2023-03-27T00:09:53.474Z,1.63
2023-03-27T00:12:21.103Z,1.40
2023-03-27T00:14:48.711Z,1.30
2023-03-27T00:17:16.335Z,1.73
2023-03-27T00:19:43.938Z,1.17
2023-03-27T00:22:11.740Z,1.20
2023-03-27T00:24:39.391Z,1.30
2023-03-27T00:27:09.127Z,1.50
2023-03-27T00:29:37.061Z,1.00
2023-03-27T00:32:04.985Z,1.30
2023-03-27T00:34:32.624Z,1.00
2023-03-27T00:37:00.345Z,1.20
2023-03-27T00:39:28.676Z,0.97
2023-03-27T00:41:56.467Z,1.10
2023-03-27T00:44:27.577Z,1.03
2023-03-27T00:46:57.172Z,1.10
2023-03-27T00:49:29.139Z,1.30
2023-03-27T00:51:59.010Z,1.33
2023-03-27T00:54:31.703Z,1.10
2023-03-27T00:57:05.319Z,1.10
2023-03-27T00:59:38.058Z,1.33
2023-03-27T01:02:07.563Z,1.20
2023-03-27T01:04:38.290Z,1.10
2023-03-27T01:07:11.215Z,1.27
2023-03-27T01:09:40.225Z,1.13
2023-03-27T01:12:17.001Z,1.00
2023-03-27T01:14:58.203Z,1.10
2023-03-27T01:17:42.510Z,1.20
2023-03-27T01:20:48.750Z,1.10
2023-03-27T01:23:59.142Z,0.87
2023-03-27T01:26:51.615Z,1.17
2023-03-27T01:29:25.650Z,1.00
2023-03-27T01:32:11.755Z,1.10
2023-03-27T01:35:04.776Z,1.00
2023-03-27T01:37:58.800Z,0.93
2023-03-27T01:40:33.475Z,1.07
2023-03-27T01:43:05.290Z,0.80
2023-03-27T01:45:39.225Z,0.90
2023-03-27T01:48:14.223Z,1.00
2023-03-27T01:50:46.723Z,1.00
2023-03-27T01:53:18.741Z,0.90
2023-03-27T01:55:51.482Z,0.90
2023-03-27T01:58:23.586Z,1.10
2023-03-27T02:00:56.534Z,0.87
2023-03-27T02:03:30.136Z,0.60
2023-03-27T02:06:04.485Z,0.80
2023-03-27T02:08:37.636Z,1.00
2023-03-27T02:11:16.341Z,0.90
2023-03-27T02:13:48.798Z,0.67
2023-03-27T02:16:21.219Z,0.80
2023-03-27T02:18:54.585Z,0.70
2023-03-27T02:21:23.602Z,1.00
2023-03-27T02:23:51.636Z,0.80
2023-03-27T02:26:20.792Z,0.70
2023-03-27T02:29:03.139Z,0.50
2023-03-27T02:31:42.433Z,0.63
2023-03-27T02:34:29.073Z,0.97
2023-03-27T02:37:03.857Z,0.80
2023-03-27T02:39:59.320Z,0.70
2023-03-27T02:42:36.708Z,0.80
2023-03-27T02:45:11.244Z,1.00
2023-03-27T02:47:43.313Z,0.90
2023-03-27T02:50:17.919Z,0.83
2023-03-27T02:52:51.255Z,0.90
2023-03-27T02:55:22.348Z,0.77
2023-03-27T02:57:56.574Z,0.80
2023-03-27T03:00:34.434Z,0.80
2023-03-27T03:03:34.786Z,1.23
2023-03-27T03:06:11.224Z,0.93
2023-03-27T03:08:39.582Z,0.70
2023-03-27T03:11:13.479Z,0.80
2023-03-27T03:13:42.570Z,1.13
2023-03-27T03:16:11.407Z,0.90
2023-03-27T03:18:40.743Z,0.80
2023-03-27T03:21:08.583Z,0.80
2023-03-27T03:23:36.473Z,1.17
2023-03-27T03:26:04.761Z,1.20
2023-03-27T03:29:00.764Z,0.90
2023-03-27T03:31:43.231Z,1.00
2023-03-27T03:34:11.723Z,0.83
2023-03-27T03:36:41.928Z,0.90
2023-03-27T03:39:11.463Z,1.07
2023-03-27T03:41:39.274Z,1.00
2023-03-27T03:44:08.396Z,0.90
2023-03-27T03:46:36.190Z,1.20
2023-03-27T03:49:04.901Z,1.00
2023-03-27T03:51:33.049Z,0.90
2023-03-27T03:54:01.333Z,1.13
2023-03-27T03:56:30.574Z,1.07
2023-03-27T03:58:58.906Z,1.20
2023-03-27T04:01:28.068Z,1.00
2023-03-27T04:04:00.686Z,1.00
2023-03-27T04:06:37.768Z,1.37
2023-03-27T04:09:05.962Z,1.07
2023-03-27T04:11:59.657Z,1.10
2023-03-27T04:14:46.493Z,1.30
2023-03-27T04:17:35.898Z,1.73
2023-03-27T04:20:06.234Z,1.70
2023-03-27T04:22:37.849Z,1.87
2023-03-27T04:25:09.415Z,2.10
2023-03-27T04:27:37.003Z,2.20
2023-03-27T04:30:16.054Z,1.87
2023-03-27T04:33:08.114Z,1.70
2023-03-27T04:37:56.464Z,1.40
2023-03-27T04:40:54.488Z,1.40
2023-03-27T04:43:26.125Z,1.30
2023-03-27T04:45:54.878Z,1.40
2023-03-27T04:48:23.336Z,1.20
2023-03-27T04:50:55.536Z,1.20
2023-03-27T04:53:37.738Z,1.13
2023-03-27T04:56:08.454Z,1.80
2023-03-27T04:58:41.092Z,2.50
2023-03-27T05:01:13.705Z,2.50
2023-03-27T05:03:58.892Z,2.50
2023-03-27T05:06:43.383Z,2.80
2023-03-27T05:09:17.634Z,2.80
2023-03-27T05:11:49.674Z,2.43
2023-03-27T05:14:17.828Z,2.10
2023-03-27T05:16:46.039Z,1.50
2023-03-27T05:19:13.861Z,1.37
2023-03-27T05:21:46.291Z,1.20
2023-03-27T05:24:16.432Z,0.97
2023-03-27T05:26:45.991Z,1.03
2023-03-27T05:29:14.353Z,0.90
2023-03-27T05:31:46.105Z,0.90
2023-03-27T05:34:34.648Z,1.00
2023-03-27T05:37:06.880Z,0.87
2023-03-27T05:39:46.212Z,1.00
2023-03-27T05:42:14.129Z,0.80
2023-03-27T05:44:43.375Z,1.20
2023-03-27T05:47:11.502Z,1.00
2023-03-27T05:49:39.304Z,0.80
2023-03-27T05:52:11.829Z,0.83
2023-03-27T05:54:39.628Z,1.10
2023-03-27T05:57:12.730Z,0.83
2023-03-27T05:59:41.875Z,0.93
2023-03-27T06:02:21.449Z,1.40
2023-03-27T06:04:59.112Z,1.00
2023-03-27T06:07:30.947Z,1.10
2023-03-27T06:10:03.661Z,1.10
2023-03-27T06:12:36.865Z,1.00
2023-03-27T06:15:25.690Z,1.10
2023-03-27T06:18:08.264Z,1.20
2023-03-27T06:20:38.203Z,0.90
2023-03-27T06:23:08.265Z,0.90
2023-03-27T06:25:41.096Z,1.10
2023-03-27T06:28:14.219Z,1.00
2023-03-27T06:30:50.409Z,1.33
2023-03-27T06:33:26.332Z,1.20
2023-03-27T06:36:02.054Z,1.20
2023-03-27T06:38:37.767Z,1.43
2023-03-27T06:41:06.803Z,1.37
2023-03-27T06:43:54.755Z,1.40
2023-03-27T06:46:45.458Z,1.10
2023-03-27T06:49:29.124Z,1.57
2023-03-27T06:51:57.647Z,1.20
2023-03-27T06:54:25.539Z,1.40
2023-03-27T06:56:56.389Z,1.27
2023-03-27T06:59:26.892Z,1.47
2023-03-27T07:02:02.685Z,1.80
2023-03-27T07:05:03.797Z,1.50
2023-03-27T07:07:41.420Z,1.43
2023-03-27T07:10:11.622Z,1.10
2023-03-27T07:12:41.365Z,1.40
2023-03-27T07:15:12.702Z,1.30
2023-03-27T07:17:49.160Z,1.30
2023-03-27T07:20:20.483Z,2.00
2023-03-27T07:22:48.578Z,1.60
2023-03-27T07:25:38.361Z,1.50
2023-03-27T07:28:16.818Z,1.30
2023-03-27T07:30:46.707Z,1.60
2023-03-27T07:33:15.133Z,1.70
2023-03-27T07:35:43.974Z,1.70
2023-03-27T07:38:31.971Z,1.30
2023-03-27T07:41:13.761Z,1.30
2023-03-27T07:44:05.240Z,1.93
2023-03-27T07:46:45.103Z,1.50
2023-03-27T07:49:17.825Z,1.50
2023-03-27T07:51:46.075Z,1.40
2023-03-27T07:54:15.456Z,1.30
2023-03-27T07:56:48.909Z,1.60
2023-03-27T07:59:33.871Z,1.60
2023-03-27T08:02:16.020Z,1.47
2023-03-27T08:04:43.920Z,1.80
2023-03-27T08:07:12.257Z,1.50
2023-03-27T08:09:44.869Z,1.80
2023-03-27T08:12:13.881Z,1.70
2023-03-27T08:14:45.750Z,1.40
2023-03-27T08:17:22.371Z,1.60
2023-03-27T08:19:50.971Z,1.87
2023-03-27T08:22:30.412Z,1.43
2023-03-27T08:25:43.231Z,1.90
2023-03-27T08:28:14.144Z,1.57
2023-03-27T08:30:53.962Z,1.80
2023-03-27T08:33:45.948Z,1.80
2023-03-27T08:36:25.979Z,1.40
2023-03-27T08:39:09.124Z,1.67
2023-03-27T08:42:01.050Z,1.63
2023-03-27T08:44:48.775Z,1.40
2023-03-27T08:47:27.821Z,1.20
2023-03-27T08:50:22.679Z,1.47
2023-03-27T08:53:01.619Z,1.60
2023-03-27T08:55:56.487Z,1.40
2023-03-27T08:58:43.549Z,1.23
2023-03-27T09:01:36.805Z,1.47
2023-03-27T09:04:26.141Z,1.43
2023-03-27T09:07:15.670Z,1.40
2023-03-27T09:10:07.508Z,1.27
2023-03-27T09:13:02.804Z,1.47
2023-03-27T09:15:51.326Z,1.43
2023-03-27T09:18:25.476Z,1.27
2023-03-27T09:21:10.973Z,1.20
2023-03-27T09:23:44.947Z,1.23
2023-03-27T09:26:46.528Z,1.57
2023-03-27T09:29:41.867Z,1.30
2023-03-27T09:32:57.173Z,1.60
2023-03-27T09:35:30.100Z,1.20
2023-03-27T09:38:04.178Z,1.23
2023-03-27T09:40:55.600Z,1.50
2023-03-27T09:43:36.225Z,1.23
2023-03-27T09:46:11.499Z,1.20
2023-03-27T09:48:57.021Z,1.57
2023-03-27T09:51:55.311Z,1.40
2023-03-27T09:54:53.646Z,1.20
2023-03-27T09:57:34.001Z,1.10
2023-03-27T10:00:13.424Z,1.50
2023-03-27T10:03:01.125Z,1.17
2023-03-27T10:05:30.376Z,1.37
2023-03-27T10:07:59.183Z,1.20
2023-03-27T10:10:57.660Z,1.23
2023-03-27T10:13:48.808Z,1.13
2023-03-27T10:16:22.771Z,1.20
2023-03-27T10:19:00.952Z,1.00
2023-03-27T10:21:36.307Z,1.03
2023-03-27T10:24:08.381Z,1.33
2023-03-27T10:26:54.729Z,1.30
2023-03-27T10:29:27.366Z,1.03
2023-03-27T10:31:56.931Z,0.90
2023-03-27T10:34:58.505Z,1.00
2023-03-27T10:37:50.484Z,1.37
2023-03-27T10:40:38.816Z,1.10
2023-03-27T10:43:25.544Z,1.10
2023-03-27T10:45:57.524Z,1.10
2023-03-27T10:48:37.330Z,1.20
2023-03-27T10:51:09.229Z,1.30
2023-03-27T10:53:58.820Z,1.23
2023-03-27T10:56:47.002Z,1.07
2023-03-27T10:59:28.072Z,1.37
2023-03-27T11:02:14.917Z,1.20
2023-03-27T11:04:50.035Z,0.90
2023-03-27T11:07:26.809Z,0.90
2023-03-27T11:10:03.632Z,1.13
2023-03-27T11:12:38.006Z,1.17
2023-03-27T11:15:14.722Z,1.10
2023-03-27T11:17:49.325Z,1.00
2023-03-27T11:20:44.276Z,1.30
2023-03-27T11:23:33.952Z,1.00
2023-03-27T11:26:23.234Z,0.80
2023-03-27T11:28:57.580Z,0.90
2023-03-27T11:31:40.209Z,0.90
2023-03-27T11:34:29.087Z,0.63
2023-03-27T11:37:05.865Z,0.73
2023-03-27T11:39:49.285Z,0.83
2023-03-27T11:42:21.977Z,0.93
2023-03-27T11:44:51.458Z,0.97
2023-03-27T11:48:13.814Z,1.07
2023-03-27T11:50:56.818Z,0.83
2023-03-27T11:53:41.216Z,1.00
2023-03-27T11:56:25.429Z,0.67
2023-03-27T11:59:19.440Z,0.60
2023-03-27T12:02:04.825Z,0.60
2023-03-27T12:04:45.685Z,0.47
2023-03-27T12:07:46.552Z,0.70
2023-03-27T12:10:29.239Z,0.60
2023-03-27T12:13:46.149Z,0.47
2023-03-27T12:16:41.383Z,0.80
2023-03-27T12:19:31.032Z,0.50
2023-03-27T12:22:24.993Z,0.60
2023-03-27T12:25:22.883Z,0.70
2023-03-27T12:28:37.755Z,0.83
2023-03-27T12:31:37.721Z,0.60
2023-03-27T12:34:07.099Z,0.90
2023-03-27T12:36:38.926Z,0.70
2023-03-27T12:39:16.151Z,0.80
2023-03-27T12:41:46.838Z,0.80
2023-03-27T12:44:30.987Z,1.23
2023-03-27T12:47:09.065Z,0.80
2023-03-27T12:49:47.922Z,1.20
2023-03-27T12:52:25.482Z,1.10
2023-03-27T12:55:28.316Z,0.80
2023-03-27T12:57:57.884Z,1.10
2023-03-27T13:01:00.350Z,1.30
2023-03-27T13:04:06.968Z,1.10
2023-03-27T13:06:45.636Z,1.10
2023-03-27T13:09:29.933Z,0.90
2023-03-27T13:12:19.761Z,1.10
2023-03-27T13:15:14.542Z,0.60
2023-03-27T13:17:56.953Z,0.90
2023-03-27T13:20:37.235Z,1.03
2023-03-27T13:23:19.635Z,0.90
2023-03-27T13:26:14.325Z,0.70
2023-03-27T13:28:49.019Z,0.77
2023-03-27T13:31:51.349Z,1.10
2023-03-27T13:34:42.698Z,0.70
2023-03-27T13:37:43.494Z,0.90
2023-03-27T13:40:24.495Z,0.70
2023-03-27T13:43:11.140Z,0.70
2023-03-27T13:45:46.858Z,0.90
2023-03-27T13:49:11.281Z,0.80
2023-03-27T13:52:06.238Z,0.60
2023-03-27T13:54:55.297Z,0.70
2023-03-27T13:57:49.754Z,0.93
2023-03-27T14:00:43.879Z,0.80
2023-03-27T14:03:49.069Z,1.00
2023-03-27T14:06:51.942Z,0.70
2023-03-27T14:09:35.367Z,0.90
2023-03-27T14:12:15.458Z,0.80
2023-03-27T14:15:22.236Z,0.83
2023-03-27T14:18:32.679Z,0.90
2023-03-27T14:21:03.384Z,0.70
2023-03-27T14:23:48.266Z,0.97
2023-03-27T14:26:33.722Z,1.03
2023-03-27T14:29:03.468Z,0.90
2023-03-27T14:31:51.585Z,0.90
2023-03-27T14:34:43.789Z,0.70
2023-03-27T14:37:39.550Z,0.87
2023-03-27T14:40:32.747Z,0.60
2023-03-27T14:43:07.978Z,0.50
2023-03-27T14:45:40.300Z,0.50
2023-03-27T14:48:21.139Z,0.60
2023-03-27T14:50:54.369Z,0.30
2023-03-27T14:53:27.087Z,0.40
2023-03-27T14:56:25.566Z,0.30
2023-03-27T14:58:57.340Z,0.40
2023-03-27T15:01:26.668Z,0.60
2023-03-27T15:03:56.367Z,0.40
2023-03-27T15:06:26.368Z,0.50
2023-03-27T15:09:05.340Z,0.57
2023-03-27T15:11:56.134Z,0.70
2023-03-27T15:14:31.443Z,0.80
2023-03-27T15:17:02.878Z,0.77
2023-03-27T15:19:45.551Z,0.80
2023-03-27T15:22:24.475Z,0.80
2023-03-27T15:24:56.736Z,0.60
2023-03-27T15:27:28.140Z,0.53
2023-03-27T15:30:00.622Z,0.40
2023-03-27T15:32:46.378Z,0.40
2023-03-27T15:35:18.254Z,0.20
2023-03-27T15:37:46.366Z,0.40
2023-03-27T15:40:41.778Z,0.63
2023-03-27T15:43:22.818Z,0.60
2023-03-27T15:46:02.632Z,0.70
2023-03-27T15:48:32.227Z,0.87
2023-03-27T15:51:02.268Z,0.70
2023-03-27T15:53:38.593Z,0.87
2023-03-27T15:56:17.150Z,1.00
2023-03-27T15:58:49.242Z,1.10
2023-03-27T16:01:21.525Z,0.80
2023-03-27T16:03:51.292Z,0.90
2023-03-27T16:06:30.671Z,0.63
2023-03-27T16:08:58.975Z,0.50
2023-03-27T16:11:40.466Z,0.50
2023-03-27T16:14:22.562Z,0.70
2023-03-27T16:16:55.487Z,0.57
2023-03-27T16:19:23.088Z,0.50
2023-03-27T16:21:58.171Z,0.60
2023-03-27T16:24:26.044Z,0.80
2023-03-27T16:26:54.868Z,0.60
2023-03-27T16:29:22.871Z,0.60
2023-03-27T16:31:51.929Z,0.70
2023-03-27T16:34:22.863Z,0.50
2023-03-27T16:36:50.768Z,0.53
2023-03-27T16:39:18.407Z,0.47
2023-03-27T16:41:46.342Z,0.57
2023-03-27T16:44:13.974Z,0.70
2023-03-27T16:46:41.685Z,0.67
2023-03-27T16:49:13.512Z,1.00
2023-03-27T16:51:41.161Z,1.03
2023-03-27T16:54:08.742Z,0.70
2023-03-27T16:56:36.761Z,1.10
2023-03-27T16:59:04.732Z,0.80
2023-03-27T17:01:32.378Z,1.20
2023-03-27T17:04:00.005Z,1.10
2023-03-27T17:06:28.964Z,1.07
2023-03-27T17:08:56.589Z,0.93
2023-03-27T17:11:24.287Z,0.80
2023-03-27T17:13:52.640Z,0.90
2023-03-27T17:16:20.322Z,0.80
2023-03-27T17:18:48.086Z,0.70
2023-03-27T17:21:15.680Z,0.70
2023-03-27T17:23:48.260Z,0.80
2023-03-27T17:26:22.755Z,0.80
2023-03-27T17:28:50.516Z,0.70
2023-03-27T17:31:18.233Z,0.63
2023-03-27T17:33:45.922Z,0.60
2023-03-27T17:36:15.739Z,0.90
2023-03-27T17:38:44.933Z,0.70
2023-03-27T17:41:14.586Z,0.80
2023-03-27T17:43:42.217Z,1.00
2023-03-27T17:46:10.076Z,0.97
2023-03-27T17:48:37.932Z,0.93
2023-03-27T17:51:09.251Z,0.80
2023-03-27T17:53:38.102Z,0.80
2023-03-27T17:56:08.455Z,0.90
2023-03-27T17:58:36.990Z,0.90
2023-03-27T18:01:16.459Z,0.80
2023-03-27T18:03:45.213Z,0.80
2023-03-27T18:06:13.306Z,1.00
2023-03-27T18:08:41.446Z,0.80
2023-03-27T18:11:12.733Z,1.10
2023-03-27T18:13:41.232Z,0.77
2023-03-27T18:16:10.912Z,1.17
2023-03-27T18:18:39.992Z,1.07
2023-03-27T18:21:09.431Z,1.07
2023-03-27T18:23:46.109Z,1.27
2023-03-27T18:26:16.572Z,1.40
2023-03-27T18:28:44.485Z,1.00
2023-03-27T18:31:13.265Z,0.90
2023-03-27T18:33:41.141Z,1.00
2023-03-27T18:36:10.836Z,1.20
2023-03-27T18:38:40.114Z,1.00
2023-03-27T18:41:08.466Z,1.03
2023-03-27T18:43:37.520Z,1.00
2023-03-27T18:46:07.149Z,0.70
2023-03-27T18:48:35.398Z,0.90
2023-03-27T18:51:04.629Z,0.70
2023-03-27T18:53:32.383Z,1.20
2023-03-27T18:56:00.847Z,1.20
2023-03-27T18:58:30.218Z,1.13
2023-03-27T19:00:59.987Z,1.13
2023-03-27T19:03:30.411Z,1.00
2023-03-27T19:06:02.157Z,1.40
2023-03-27T19:08:30.723Z,1.40
2023-03-27T19:10:58.520Z,1.37
2023-03-27T19:13:45.025Z,1.23
2023-03-27T19:16:26.918Z,1.17
2023-03-27T19:19:13.305Z,1.03
2023-03-27T19:22:01.281Z,0.90
2023-03-27T19:24:48.691Z,1.10
2023-03-27T19:27:23.656Z,1.27
2023-03-27T19:29:52.740Z,1.00
2023-03-27T19:32:21.860Z,1.00
2023-03-27T19:34:49.483Z,1.30
2023-03-27T19:37:17.296Z,1.20
2023-03-27T19:39:44.903Z,1.37
2023-03-27T19:42:12.579Z,1.30
2023-03-27T19:44:40.192Z,1.23
2023-03-27T19:47:09.635Z,0.77
2023-03-27T19:49:38.644Z,1.20
2023-03-27T19:52:19.808Z,1.00
2023-03-27T19:54:47.584Z,1.70
2023-03-27T19:57:15.515Z,1.10
2023-03-27T19:59:43.168Z,1.20
2023-03-27T20:02:12.244Z,1.17
2023-03-27T20:04:41.349Z,1.50
2023-03-27T20:07:10.139Z,0.97
2023-03-27T20:09:38.259Z,1.20
2023-03-27T20:12:06.781Z,0.90
2023-03-27T20:14:34.401Z,1.13
2023-03-27T20:17:02.059Z,1.20
2023-03-27T20:19:30.466Z,1.70
2023-03-27T20:22:02.183Z,1.00
2023-03-27T20:24:29.828Z,0.97
2023-03-27T20:27:02.120Z,1.20
2023-03-27T20:29:29.848Z,1.10
2023-03-27T20:31:57.548Z,1.10
2023-03-27T20:34:25.231Z,1.40
2023-03-27T20:36:54.899Z,1.43
2023-03-27T20:39:44.668Z,1.10
2023-03-27T20:42:14.995Z,1.10
2023-03-27T20:44:43.744Z,1.50
2023-03-27T20:47:12.359Z,1.17
2023-03-27T20:49:44.176Z,1.00
2023-03-27T20:52:14.399Z,1.70
2023-03-27T20:54:43.374Z,1.50
2023-03-27T20:57:12.821Z,1.50
2023-03-27T20:59:40.597Z,1.50
2023-03-27T21:02:08.340Z,1.10
2023-03-27T21:04:36.300Z,1.30
2023-03-27T21:07:05.114Z,1.37
2023-03-27T21:09:32.797Z,1.10
2023-03-27T21:12:02.002Z,1.00
2023-03-27T21:14:29.582Z,1.10
2023-03-27T21:16:57.258Z,1.20
2023-03-27T21:19:24.925Z,0.70
2023-03-27T21:21:52.865Z,1.50
2023-03-27T21:24:20.791Z,1.30
2023-03-27T21:26:49.445Z,1.33
2023-03-27T21:29:20.837Z,1.53
2023-03-27T21:31:48.559Z,1.60
2023-03-27T21:34:16.306Z,1.10
2023-03-27T21:36:44.054Z,1.20
2023-03-27T21:39:11.777Z,1.37
2023-03-27T21:41:39.432Z,1.10
2023-03-27T21:44:07.035Z,1.30
2023-03-27T21:46:36.089Z,1.27
2023-03-27T21:49:03.735Z,1.30
2023-03-27T21:51:31.382Z,1.50
2023-03-27T21:53:58.960Z,1.13
2023-03-27T21:56:26.622Z,1.00
2023-03-27T21:58:57.294Z,1.10
2023-03-27T22:01:25.081Z,1.50
2023-03-27T22:03:54.141Z,1.60
2023-03-27T22:06:21.851Z,1.40
2023-03-27T22:08:49.471Z,1.10
2023-03-27T22:11:17.303Z,1.40
2023-03-27T22:13:46.519Z,1.67
2023-03-27T22:16:16.772Z,1.53
2023-03-27T22:18:45.079Z,1.10
2023-03-27T22:21:17.678Z,1.30
2023-03-27T22:23:50.790Z,1.33
2023-03-27T22:26:19.193Z,1.70
2023-03-27T22:28:46.884Z,1.80
2023-03-27T22:31:14.656Z,1.50
2023-03-27T22:33:42.386Z,1.77
2023-03-27T22:36:11.833Z,1.87
2023-03-27T22:38:41.340Z,1.77
2023-03-27T22:41:12.248Z,1.63
2023-03-27T22:43:40.148Z,1.67
2023-03-27T22:46:09.462Z,1.43
2023-03-27T22:48:37.204Z,1.60
2023-03-27T22:51:05.538Z,1.70
2023-03-27T22:53:33.774Z,1.57
2023-03-27T22:56:03.537Z,1.60
2023-03-27T22:58:31.580Z,1.30
2023-03-27T23:00:59.811Z,1.47
2023-03-27T23:03:28.491Z,1.37
2023-03-27T23:05:56.361Z,2.00
2023-03-27T23:08:27.141Z,1.80
2023-03-27T23:10:56.326Z,1.60
2023-03-27T23:13:26.176Z,1.97
2023-03-27T23:15:54.176Z,2.07
2023-03-27T23:18:24.617Z,1.90
2023-03-27T23:20:56.188Z,1.60
2023-03-27T23:23:23.947Z,2.10
2023-03-27T23:25:51.954Z,2.00
2023-03-27T23:28:19.774Z,2.47
2023-03-27T23:30:55.082Z,1.83
2023-03-27T23:33:24.929Z,1.73
2023-03-27T23:35:53.293Z,1.87
2023-03-27T23:38:21.240Z,2.30
2023-03-27T23:40:55.604Z,2.57
2023-03-27T23:43:23.391Z,2.07
2023-03-27T23:45:51.089Z,1.87
2023-03-27T23:48:20.407Z,1.47
2023-03-27T23:50:48.586Z,1.90
2023-03-27T23:53:16.215Z,2.20
2023-03-27T23:55:43.846Z,1.73
2023-03-27T23:58:11.419Z,2.00
